sensor_id;sensor_type;location;lat;lon;timestamp;temperature;humidity
78028;DHT22;74605;45.864;11.474;2024-01-15T00:01:32;-3276.70;73.70
78028;DHT22;74605;45.864;11.474;2024-01-15T00:03:59;-3276.20;74.10
78028;DHT22;74605;45.864;11.474;2024-01-15T00:06:25;-3276.40;74.60
78028;DHT22;74605;45.864;11.474;2024-01-15T00:08:52;-3276.70;74.90
78028;DHT22;74605;45.864;11.474;2024-01-15T00:11:18;0.00;74.70
78028;DHT22;74605;45.864;11.474;2024-01-15T00:13:44;0.00;74.40
78028;DHT22;74605;45.864;11.474;2024-01-15T00:16:11;0.00;74.30
78028;DHT22;74605;45.864;11.474;2024-01-15T00:18:37;0.20;74.40
78028;DHT22;74605;45.864;11.474;2024-01-15T00:21:04;0.20;74.00
78028;DHT22;74605;45.864;11.474;2024-01-15T00:23:30;0.20;74.20
78028;DHT22;74605;45.864;11.474;2024-01-15T00:25:56;0.10;74.30
78028;DHT22;74605;45.864;11.474;2024-01-15T00:28:25;0.10;74.20
78028;DHT22;74605;45.864;11.474;2024-01-15T00:30:51;0.30;74.20
78028;DHT22;74605;45.864;11.474;2024-01-15T00:33:17;0.60;74.30
78028;DHT22;74605;45.864;11.474;2024-01-15T00:35:43;0.40;73.90
78028;DHT22;74605;45.864;11.474;2024-01-15T00:38:09;0.60;73.90
78028;DHT22;74605;45.864;11.474;2024-01-15T00:40:35;0.40;73.50
78028;DHT22;74605;45.864;11.474;2024-01-15T00:43:01;0.40;74.00
78028;DHT22;74605;45.864;11.474;2024-01-15T00:45:28;0.70;73.80
78028;DHT22;74605;45.864;11.474;2024-01-15T00:47:54;0.70;73.30
78028;DHT22;74605;45.864;11.474;2024-01-15T00:50:22;0.20;73.80
78028;DHT22;74605;45.864;11.474;2024-01-15T00:52:48;0.00;74.00
78028;DHT22;74605;45.864;11.474;2024-01-15T00:55:14;0.40;74.20
78028;DHT22;74605;45.864;11.474;2024-01-15T00:57:40;0.70;74.20
78028;DHT22;74605;45.864;11.474;2024-01-15T01:00:07;0.30;73.50
78028;DHT22;74605;45.864;11.474;2024-01-15T01:02:33;0.00;74.10
78028;DHT22;74605;45.864;11.474;2024-01-15T01:04:59;-3276.70;74.40
78028;DHT22;74605;45.864;11.474;2024-01-15T01:07:25;0.00;74.50
78028;DHT22;74605;45.864;11.474;2024-01-15T01:09:51;0.20;74.20
78028;DHT22;74605;45.864;11.474;2024-01-15T01:12:17;0.10;74.50
78028;DHT22;74605;45.864;11.474;2024-01-15T01:14:43;0.20;74.30
78028;DHT22;74605;45.864;11.474;2024-01-15T01:17:09;0.10;74.10
78028;DHT22;74605;45.864;11.474;2024-01-15T01:19:35;0.30;74.40
78028;DHT22;74605;45.864;11.474;2024-01-15T01:22:01;0.40;74.10
78028;DHT22;74605;45.864;11.474;2024-01-15T01:24:27;0.20;74.00
78028;DHT22;74605;45.864;11.474;2024-01-15T01:26:53;0.20;74.20
78028;DHT22;74605;45.864;11.474;2024-01-15T01:29:18;0.40;74.40
78028;DHT22;74605;45.864;11.474;2024-01-15T01:31:45;0.40;74.10
78028;DHT22;74605;45.864;11.474;2024-01-15T01:34:14;0.40;74.30
78028;DHT22;74605;45.864;11.474;2024-01-15T01:36:40;0.50;74.30
78028;DHT22;74605;45.864;11.474;2024-01-15T01:39:06;0.70;74.50
78028;DHT22;74605;45.864;11.474;2024-01-15T01:41:33;0.70;74.10
78028;DHT22;74605;45.864;11.474;2024-01-15T01:43:59;0.70;73.90
78028;DHT22;74605;45.864;11.474;2024-01-15T01:46:27;0.60;73.10
78028;DHT22;74605;45.864;11.474;2024-01-15T01:48:56;0.00;74.20
78028;DHT22;74605;45.864;11.474;2024-01-15T01:51:24;0.00;74.30
78028;DHT22;74605;45.864;11.474;2024-01-15T01:53:50;-3276.70;74.30
78028;DHT22;74605;45.864;11.474;2024-01-15T01:56:17;0.00;74.30
78028;DHT22;74605;45.864;11.474;2024-01-15T01:58:44;0.20;74.40
78028;DHT22;74605;45.864;11.474;2024-01-15T02:01:12;-3276.70;74.50
78028;DHT22;74605;45.864;11.474;2024-01-15T02:03:40;0.00;74.60
78028;DHT22;74605;45.864;11.474;2024-01-15T02:06:06;0.10;74.70
78028;DHT22;74605;45.864;11.474;2024-01-15T02:08:33;0.10;74.60
78028;DHT22;74605;45.864;11.474;2024-01-15T02:11:00;0.00;74.60
78028;DHT22;74605;45.864;11.474;2024-01-15T02:13:26;0.00;74.50
78028;DHT22;74605;45.864;11.474;2024-01-15T02:15:52;0.00;74.40
78028;DHT22;74605;45.864;11.474;2024-01-15T02:18:18;0.00;74.80
78028;DHT22;74605;45.864;11.474;2024-01-15T02:20:45;0.10;74.60
78028;DHT22;74605;45.864;11.474;2024-01-15T02:23:15;-3276.50;74.70
78028;DHT22;74605;45.864;11.474;2024-01-15T02:25:45;-3276.50;74.60
78028;DHT22;74605;45.864;11.474;2024-01-15T02:28:14;-3276.20;74.80
78028;DHT22;74605;45.864;11.474;2024-01-15T02:30:41;-3276.60;74.50
78028;DHT22;74605;45.864;11.474;2024-01-15T02:33:08;-3276.60;74.50
78028;DHT22;74605;45.864;11.474;2024-01-15T02:35:35;-3276.60;74.60
78028;DHT22;74605;45.864;11.474;2024-01-15T02:38:04;-3276.50;74.70
78028;DHT22;74605;45.864;11.474;2024-01-15T02:40:30;-3276.50;74.70
78028;DHT22;74605;45.864;11.474;2024-01-15T02:42:56;-3276.30;74.80
78028;DHT22;74605;45.864;11.474;2024-01-15T02:45:23;-3276.40;74.90
78028;DHT22;74605;45.864;11.474;2024-01-15T02:47:50;-3276.30;74.90
78028;DHT22;74605;45.864;11.474;2024-01-15T02:50:16;-3276.70;75.00
78028;DHT22;74605;45.864;11.474;2024-01-15T02:52:42;-3276.70;74.60
78028;DHT22;74605;45.864;11.474;2024-01-15T02:55:08;-3276.60;74.70
78028;DHT22;74605;45.864;11.474;2024-01-15T02:57:34;0.00;74.50
78028;DHT22;74605;45.864;11.474;2024-01-15T03:00:01;0.00;74.60
78028;DHT22;74605;45.864;11.474;2024-01-15T03:02:26;0.00;74.70
78028;DHT22;74605;45.864;11.474;2024-01-15T03:04:52;-3276.70;74.60
78028;DHT22;74605;45.864;11.474;2024-01-15T03:07:18;0.10;74.70
78028;DHT22;74605;45.864;11.474;2024-01-15T03:09:44;0.00;74.50
78028;DHT22;74605;45.864;11.474;2024-01-15T03:12:10;0.00;74.00
78028;DHT22;74605;45.864;11.474;2024-01-15T03:14:37;-3276.60;74.20
78028;DHT22;74605;45.864;11.474;2024-01-15T03:17:03;-3276.30;73.60
78028;DHT22;74605;45.864;11.474;2024-01-15T03:19:29;-3276.00;74.80
78028;DHT22;74605;45.864;11.474;2024-01-15T03:21:56;-3276.30;75.00
78028;DHT22;74605;45.864;11.474;2024-01-15T03:24:22;-3276.00;74.30
78028;DHT22;74605;45.864;11.474;2024-01-15T03:26:48;-3275.80;74.00
78028;DHT22;74605;45.864;11.474;2024-01-15T03:29:14;0.20;0.20
78028;DHT22;74605;45.864;11.474;2024-01-15T03:31:40;0.20;0.20
78028;DHT22;74605;45.864;11.474;2024-01-15T03:34:06;0.20;0.20
78028;DHT22;74605;45.864;11.474;2024-01-15T03:36:32;0.20;0.20
78028;DHT22;74605;45.864;11.474;2024-01-15T03:38:58;0.20;0.20
78028;DHT22;74605;45.864;11.474;2024-01-15T03:41:24;0.20;0.20
78028;DHT22;74605;45.864;11.474;2024-01-15T03:43:50;0.20;0.20
78028;DHT22;74605;45.864;11.474;2024-01-15T03:46:16;0.20;0.20
78028;DHT22;74605;45.864;11.474;2024-01-15T03:48:42;0.20;0.20
78028;DHT22;74605;45.864;11.474;2024-01-15T03:51:08;0.20;0.20
78028;DHT22;74605;45.864;11.474;2024-01-15T03:53:35;0.20;0.20
78028;DHT22;74605;45.864;11.474;2024-01-15T03:56:01;0.20;0.20
78028;DHT22;74605;45.864;11.474;2024-01-15T03:58:27;0.20;0.20
78028;DHT22;74605;45.864;11.474;2024-01-15T04:00:53;0.20;0.20
78028;DHT22;74605;45.864;11.474;2024-01-15T04:03:19;0.20;0.20
78028;DHT22;74605;45.864;11.474;2024-01-15T04:05:45;0.20;0.20
78028;DHT22;74605;45.864;11.474;2024-01-15T04:08:11;0.20;0.20
78028;DHT22;74605;45.864;11.474;2024-01-15T04:10:37;0.20;0.20
78028;DHT22;74605;45.864;11.474;2024-01-15T04:13:03;0.20;0.20
78028;DHT22;74605;45.864;11.474;2024-01-15T04:15:29;0.20;0.20
78028;DHT22;74605;45.864;11.474;2024-01-15T04:17:55;0.20;0.20
78028;DHT22;74605;45.864;11.474;2024-01-15T04:20:21;0.20;0.20
78028;DHT22;74605;45.864;11.474;2024-01-15T04:22:48;0.20;0.20
78028;DHT22;74605;45.864;11.474;2024-01-15T04:25:14;0.20;0.20
78028;DHT22;74605;45.864;11.474;2024-01-15T04:27:39;0.20;0.20
78028;DHT22;74605;45.864;11.474;2024-01-15T04:30:06;0.20;0.20
78028;DHT22;74605;45.864;11.474;2024-01-15T04:32:32;0.20;0.20
78028;DHT22;74605;45.864;11.474;2024-01-15T04:34:58;0.20;0.20
78028;DHT22;74605;45.864;11.474;2024-01-15T04:37:24;0.20;0.20
78028;DHT22;74605;45.864;11.474;2024-01-15T04:39:50;0.20;0.20
78028;DHT22;74605;45.864;11.474;2024-01-15T04:42:18;0.20;0.20
78028;DHT22;74605;45.864;11.474;2024-01-15T04:44:44;0.20;0.20
78028;DHT22;74605;45.864;11.474;2024-01-15T04:47:10;0.20;0.20
78028;DHT22;74605;45.864;11.474;2024-01-15T04:49:36;0.20;0.20
78028;DHT22;74605;45.864;11.474;2024-01-15T04:52:02;0.20;0.20
78028;DHT22;74605;45.864;11.474;2024-01-15T04:54:28;0.20;0.20
78028;DHT22;74605;45.864;11.474;2024-01-15T04:56:54;0.20;0.20
78028;DHT22;74605;45.864;11.474;2024-01-15T04:59:21;0.20;0.20
78028;DHT22;74605;45.864;11.474;2024-01-15T05:01:47;0.20;0.20
78028;DHT22;74605;45.864;11.474;2024-01-15T05:04:14;0.20;0.20
78028;DHT22;74605;45.864;11.474;2024-01-15T05:06:40;0.20;0.20
78028;DHT22;74605;45.864;11.474;2024-01-15T05:09:07;0.20;0.20
78028;DHT22;74605;45.864;11.474;2024-01-15T05:11:33;0.20;0.20
78028;DHT22;74605;45.864;11.474;2024-01-15T05:13:59;0.20;0.20
78028;DHT22;74605;45.864;11.474;2024-01-15T05:16:25;0.20;0.20
78028;DHT22;74605;45.864;11.474;2024-01-15T05:18:51;0.20;0.20
78028;DHT22;74605;45.864;11.474;2024-01-15T05:21:17;0.20;0.20
78028;DHT22;74605;45.864;11.474;2024-01-15T05:23:44;0.20;0.20
78028;DHT22;74605;45.864;11.474;2024-01-15T05:26:10;0.20;0.20
78028;DHT22;74605;45.864;11.474;2024-01-15T05:28:36;0.20;0.20
78028;DHT22;74605;45.864;11.474;2024-01-15T05:31:02;0.20;0.20
78028;DHT22;74605;45.864;11.474;2024-01-15T05:33:29;0.20;0.20
78028;DHT22;74605;45.864;11.474;2024-01-15T05:35:56;0.20;0.20
78028;DHT22;74605;45.864;11.474;2024-01-15T05:38:24;0.20;0.20
78028;DHT22;74605;45.864;11.474;2024-01-15T05:40:50;0.20;0.20
78028;DHT22;74605;45.864;11.474;2024-01-15T05:43:16;0.20;0.20
78028;DHT22;74605;45.864;11.474;2024-01-15T05:45:43;0.20;0.20
78028;DHT22;74605;45.864;11.474;2024-01-15T05:48:10;0.20;0.20
78028;DHT22;74605;45.864;11.474;2024-01-15T05:50:37;0.20;0.20
78028;DHT22;74605;45.864;11.474;2024-01-15T05:53:03;0.20;0.20
78028;DHT22;74605;45.864;11.474;2024-01-15T05:55:29;0.20;0.20
78028;DHT22;74605;45.864;11.474;2024-01-15T05:57:55;0.20;0.20
78028;DHT22;74605;45.864;11.474;2024-01-15T06:00:21;0.20;0.20
78028;DHT22;74605;45.864;11.474;2024-01-15T06:02:47;0.20;0.20
78028;DHT22;74605;45.864;11.474;2024-01-15T06:05:13;0.20;0.20
78028;DHT22;74605;45.864;11.474;2024-01-15T06:07:39;0.20;0.20
78028;DHT22;74605;45.864;11.474;2024-01-15T06:10:06;0.20;0.20
78028;DHT22;74605;45.864;11.474;2024-01-15T06:12:32;0.20;0.20
78028;DHT22;74605;45.864;11.474;2024-01-15T06:14:59;0.20;0.20
78028;DHT22;74605;45.864;11.474;2024-01-15T06:17:25;0.20;0.20
78028;DHT22;74605;45.864;11.474;2024-01-15T06:19:51;0.20;0.20
78028;DHT22;74605;45.864;11.474;2024-01-15T06:22:17;0.20;0.20
78028;DHT22;74605;45.864;11.474;2024-01-15T06:24:43;0.20;0.20
78028;DHT22;74605;45.864;11.474;2024-01-15T06:27:09;0.20;0.20
78028;DHT22;74605;45.864;11.474;2024-01-15T06:29:38;0.20;0.20
78028;DHT22;74605;45.864;11.474;2024-01-15T06:32:04;0.20;0.20
78028;DHT22;74605;45.864;11.474;2024-01-15T06:34:30;0.20;0.20
78028;DHT22;74605;45.864;11.474;2024-01-15T06:36:56;0.20;0.20
78028;DHT22;74605;45.864;11.474;2024-01-15T06:39:25;0.20;0.20
78028;DHT22;74605;45.864;11.474;2024-01-15T06:41:51;0.20;0.20
78028;DHT22;74605;45.864;11.474;2024-01-15T06:44:17;0.20;0.20
78028;DHT22;74605;45.864;11.474;2024-01-15T06:46:44;0.20;0.20
78028;DHT22;74605;45.864;11.474;2024-01-15T06:49:10;0.20;0.20
78028;DHT22;74605;45.864;11.474;2024-01-15T06:51:36;0.20;0.20
78028;DHT22;74605;45.864;11.474;2024-01-15T06:54:02;0.20;0.20
78028;DHT22;74605;45.864;11.474;2024-01-15T06:56:28;0.20;0.20
78028;DHT22;74605;45.864;11.474;2024-01-15T06:58:54;0.20;0.20
78028;DHT22;74605;45.864;11.474;2024-01-15T07:01:19;0.20;0.20
78028;DHT22;74605;45.864;11.474;2024-01-15T07:03:46;0.20;0.20
78028;DHT22;74605;45.864;11.474;2024-01-15T07:06:12;0.20;0.20
78028;DHT22;74605;45.864;11.474;2024-01-15T07:08:39;0.20;0.20
78028;DHT22;74605;45.864;11.474;2024-01-15T07:11:06;0.20;0.20
78028;DHT22;74605;45.864;11.474;2024-01-15T07:13:32;0.20;0.20
78028;DHT22;74605;45.864;11.474;2024-01-15T07:15:58;0.20;0.20
78028;DHT22;74605;45.864;11.474;2024-01-15T07:18:24;0.20;0.20
78028;DHT22;74605;45.864;11.474;2024-01-15T07:20:51;0.20;0.20
78028;DHT22;74605;45.864;11.474;2024-01-15T07:23:17;0.20;0.20
78028;DHT22;74605;45.864;11.474;2024-01-15T07:25:43;0.20;0.20
78028;DHT22;74605;45.864;11.474;2024-01-15T07:28:09;0.20;0.20
78028;DHT22;74605;45.864;11.474;2024-01-15T07:30:35;0.20;0.20
78028;DHT22;74605;45.864;11.474;2024-01-15T07:33:04;0.20;0.20
78028;DHT22;74605;45.864;11.474;2024-01-15T07:35:30;0.20;0.20
78028;DHT22;74605;45.864;11.474;2024-01-15T07:37:56;0.20;0.20
78028;DHT22;74605;45.864;11.474;2024-01-15T07:40:22;0.20;0.20
78028;DHT22;74605;45.864;11.474;2024-01-15T07:42:48;0.20;0.20
78028;DHT22;74605;45.864;11.474;2024-01-15T07:45:14;0.20;0.20
78028;DHT22;74605;45.864;11.474;2024-01-15T07:47:40;0.20;0.20
78028;DHT22;74605;45.864;11.474;2024-01-15T07:50:06;0.20;0.20
78028;DHT22;74605;45.864;11.474;2024-01-15T07:52:32;0.20;0.20
78028;DHT22;74605;45.864;11.474;2024-01-15T07:54:59;0.20;0.20
78028;DHT22;74605;45.864;11.474;2024-01-15T07:57:29;0.20;0.20
78028;DHT22;74605;45.864;11.474;2024-01-15T07:59:55;0.20;0.20
78028;DHT22;74605;45.864;11.474;2024-01-15T08:02:21;0.20;0.20
78028;DHT22;74605;45.864;11.474;2024-01-15T08:04:47;0.20;0.20
78028;DHT22;74605;45.864;11.474;2024-01-15T08:07:13;0.20;0.20
78028;DHT22;74605;45.864;11.474;2024-01-15T08:09:39;0.20;0.20
78028;DHT22;74605;45.864;11.474;2024-01-15T08:12:05;0.20;0.20
78028;DHT22;74605;45.864;11.474;2024-01-15T08:14:32;0.20;0.20
78028;DHT22;74605;45.864;11.474;2024-01-15T08:16:58;0.20;0.20
78028;DHT22;74605;45.864;11.474;2024-01-15T08:19:23;0.20;0.20
78028;DHT22;74605;45.864;11.474;2024-01-15T08:21:50;0.20;0.20
78028;DHT22;74605;45.864;11.474;2024-01-15T08:24:17;0.20;0.20
78028;DHT22;74605;45.864;11.474;2024-01-15T08:26:43;0.20;0.20
78028;DHT22;74605;45.864;11.474;2024-01-15T08:29:09;0.50;73.70
78028;DHT22;74605;45.864;11.474;2024-01-15T08:31:36;0.50;73.40
78028;DHT22;74605;45.864;11.474;2024-01-15T08:34:02;0.50;73.50
78028;DHT22;74605;45.864;11.474;2024-01-15T08:36:28;0.90;73.30
78028;DHT22;74605;45.864;11.474;2024-01-15T08:38:57;0.50;72.90
78028;DHT22;74605;45.864;11.474;2024-01-15T08:41:23;0.60;73.30
78028;DHT22;74605;45.864;11.474;2024-01-15T08:43:49;0.50;73.50
78028;DHT22;74605;45.864;11.474;2024-01-15T08:46:15;0.80;73.50
78028;DHT22;74605;45.864;11.474;2024-01-15T08:48:41;1.00;73.20
78028;DHT22;74605;45.864;11.474;2024-01-15T08:51:07;0.90;73.40
78028;DHT22;74605;45.864;11.474;2024-01-15T08:53:33;1.10;73.90
78028;DHT22;74605;45.864;11.474;2024-01-15T08:55:59;1.30;73.30
78028;DHT22;74605;45.864;11.474;2024-01-15T08:58:25;1.30;73.60
78028;DHT22;74605;45.864;11.474;2024-01-15T09:00:51;1.50;73.70
78028;DHT22;74605;45.864;11.474;2024-01-15T09:03:17;1.90;73.40
78028;DHT22;74605;45.864;11.474;2024-01-15T09:05:43;2.30;72.80
78028;DHT22;74605;45.864;11.474;2024-01-15T09:08:09;2.10;73.20
78028;DHT22;74605;45.864;11.474;2024-01-15T09:10:35;2.20;73.70
78028;DHT22;74605;45.864;11.474;2024-01-15T09:13:01;2.20;74.10
78028;DHT22;74605;45.864;11.474;2024-01-15T09:15:29;2.30;74.30
78028;DHT22;74605;45.864;11.474;2024-01-15T09:17:55;2.40;74.10
78028;DHT22;74605;45.864;11.474;2024-01-15T09:20:23;2.60;74.70
78028;DHT22;74605;45.864;11.474;2024-01-15T09:22:49;2.80;74.60
78028;DHT22;74605;45.864;11.474;2024-01-15T09:25:15;3.00;73.90
78028;DHT22;74605;45.864;11.474;2024-01-15T09:27:41;2.90;74.20
78028;DHT22;74605;45.864;11.474;2024-01-15T09:30:08;2.80;73.90
78028;DHT22;74605;45.864;11.474;2024-01-15T09:32:34;3.50;74.30
78028;DHT22;74605;45.864;11.474;2024-01-15T09:35:00;3.50;73.70
78028;DHT22;74605;45.864;11.474;2024-01-15T09:37:26;3.80;73.30
78028;DHT22;74605;45.864;11.474;2024-01-15T09:39:52;4.40;72.10
78028;DHT22;74605;45.864;11.474;2024-01-15T09:42:19;5.00;71.80
78028;DHT22;74605;45.864;11.474;2024-01-15T09:44:45;5.40;69.90
78028;DHT22;74605;45.864;11.474;2024-01-15T09:47:12;5.50;70.00
78028;DHT22;74605;45.864;11.474;2024-01-15T09:49:38;6.20;69.50
78028;DHT22;74605;45.864;11.474;2024-01-15T09:52:07;7.00;68.00
78028;DHT22;74605;45.864;11.474;2024-01-15T09:54:33;7.00;68.20
78028;DHT22;74605;45.864;11.474;2024-01-15T09:57:00;7.40;67.20
78028;DHT22;74605;45.864;11.474;2024-01-15T09:59:27;7.60;66.70
78028;DHT22;74605;45.864;11.474;2024-01-15T10:01:55;8.00;66.20
78028;DHT22;74605;45.864;11.474;2024-01-15T10:04:22;7.60;66.40
78028;DHT22;74605;45.864;11.474;2024-01-15T10:06:51;8.00;66.20
78028;DHT22;74605;45.864;11.474;2024-01-15T10:09:17;8.30;65.60
78028;DHT22;74605;45.864;11.474;2024-01-15T10:11:44;8.40;65.20
78028;DHT22;74605;45.864;11.474;2024-01-15T10:14:11;8.70;65.40
78028;DHT22;74605;45.864;11.474;2024-01-15T10:16:41;8.90;64.60
78028;DHT22;74605;45.864;11.474;2024-01-15T10:19:10;9.50;64.60
78028;DHT22;74605;45.864;11.474;2024-01-15T10:21:37;9.40;64.00
78028;DHT22;74605;45.864;11.474;2024-01-15T10:24:03;9.10;64.10
78028;DHT22;74605;45.864;11.474;2024-01-15T10:26:30;8.40;64.30
78028;DHT22;74605;45.864;11.474;2024-01-15T10:28:57;9.00;64.00
78028;DHT22;74605;45.864;11.474;2024-01-15T10:31:25;9.10;63.80
78028;DHT22;74605;45.864;11.474;2024-01-15T10:33:51;9.00;64.10
78028;DHT22;74605;45.864;11.474;2024-01-15T10:36:17;9.00;63.90
78028;DHT22;74605;45.864;11.474;2024-01-15T10:38:44;9.10;63.50
78028;DHT22;74605;45.864;11.474;2024-01-15T10:41:10;9.50;63.70
78028;DHT22;74605;45.864;11.474;2024-01-15T10:43:36;9.50;63.60
78028;DHT22;74605;45.864;11.474;2024-01-15T10:46:03;9.60;63.80
78028;DHT22;74605;45.864;11.474;2024-01-15T10:48:29;9.20;64.10
78028;DHT22;74605;45.864;11.474;2024-01-15T10:50:57;9.20;63.80
78028;DHT22;74605;45.864;11.474;2024-01-15T10:53:24;9.60;63.70
78028;DHT22;74605;45.864;11.474;2024-01-15T10:55:53;9.80;63.50
78028;DHT22;74605;45.864;11.474;2024-01-15T10:58:20;9.80;63.50
78028;DHT22;74605;45.864;11.474;2024-01-15T11:00:47;9.80;63.50
78028;DHT22;74605;45.864;11.474;2024-01-15T11:03:14;9.50;63.40
78028;DHT22;74605;45.864;11.474;2024-01-15T11:05:44;9.00;63.80
78028;DHT22;74605;45.864;11.474;2024-01-15T11:08:10;8.90;64.10
78028;DHT22;74605;45.864;11.474;2024-01-15T11:10:44;9.30;64.00
78028;DHT22;74605;45.864;11.474;2024-01-15T11:16:03;9.20;63.80
78028;DHT22;74605;45.864;11.474;2024-01-15T11:18:31;9.20;63.70
78028;DHT22;74605;45.864;11.474;2024-01-15T11:23:44;8.60;64.30
78028;DHT22;74605;45.864;11.474;2024-01-15T11:26:46;8.50;64.70
78028;DHT22;74605;45.864;11.474;2024-01-15T11:29:37;8.50;64.40
78028;DHT22;74605;45.864;11.474;2024-01-15T11:32:07;8.50;64.40
78028;DHT22;74605;45.864;11.474;2024-01-15T11:34:54;8.50;64.40
78028;DHT22;74605;45.864;11.474;2024-01-15T11:37:57;8.00;64.80
78028;DHT22;74605;45.864;11.474;2024-01-15T11:40:18;8.00;64.80
78028;DHT22;74605;45.864;11.474;2024-01-15T11:42:48;7.90;65.20
78028;DHT22;74605;45.864;11.474;2024-01-15T11:45:20;8.10;65.00
78028;DHT22;74605;45.864;11.474;2024-01-15T11:50:22;8.00;65.10
78028;DHT22;74605;45.864;11.474;2024-01-15T11:52:57;8.20;65.00
78028;DHT22;74605;45.864;11.474;2024-01-15T11:55:44;8.20;65.00
78028;DHT22;74605;45.864;11.474;2024-01-15T11:58:11;7.90;65.00
78028;DHT22;74605;45.864;11.474;2024-01-15T12:00:44;7.80;65.40
78028;DHT22;74605;45.864;11.474;2024-01-15T12:03:11;7.90;65.10
78028;DHT22;74605;45.864;11.474;2024-01-15T12:05:38;7.40;65.40
78028;DHT22;74605;45.864;11.474;2024-01-15T12:08:04;7.60;65.60
78028;DHT22;74605;45.864;11.474;2024-01-15T12:10:37;7.70;65.70
78028;DHT22;74605;45.864;11.474;2024-01-15T12:13:14;7.60;65.70
78028;DHT22;74605;45.864;11.474;2024-01-15T12:15:41;7.30;65.90
78028;DHT22;74605;45.864;11.474;2024-01-15T12:18:09;7.70;65.80
78028;DHT22;74605;45.864;11.474;2024-01-15T12:20:36;7.50;65.70
78028;DHT22;74605;45.864;11.474;2024-01-15T12:23:02;7.40;65.80
78028;DHT22;74605;45.864;11.474;2024-01-15T12:25:32;7.80;65.70
78028;DHT22;74605;45.864;11.474;2024-01-15T12:28:00;8.00;65.30
78028;DHT22;74605;45.864;11.474;2024-01-15T12:30:28;7.90;65.60
78028;DHT22;74605;45.864;11.474;2024-01-15T12:32:54;8.10;65.50
78028;DHT22;74605;45.864;11.474;2024-01-15T12:35:20;8.20;65.00
78028;DHT22;74605;45.864;11.474;2024-01-15T12:37:47;8.20;64.90
78028;DHT22;74605;45.864;11.474;2024-01-15T12:40:19;8.30;64.90
78028;DHT22;74605;45.864;11.474;2024-01-15T12:42:46;8.10;65.10
78028;DHT22;74605;45.864;11.474;2024-01-15T12:45:12;8.50;64.90
78028;DHT22;74605;45.864;11.474;2024-01-15T12:47:39;8.10;64.90
78028;DHT22;74605;45.864;11.474;2024-01-15T12:50:12;7.90;65.20
78028;DHT22;74605;45.864;11.474;2024-01-15T12:52:40;8.20;64.90
78028;DHT22;74605;45.864;11.474;2024-01-15T12:55:08;8.10;64.90
78028;DHT22;74605;45.864;11.474;2024-01-15T12:57:35;8.20;64.90
78028;DHT22;74605;45.864;11.474;2024-01-15T13:00:03;8.60;64.40
78028;DHT22;74605;45.864;11.474;2024-01-15T13:02:33;8.40;64.90
78028;DHT22;74605;45.864;11.474;2024-01-15T13:05:00;7.90;65.10
78028;DHT22;74605;45.864;11.474;2024-01-15T13:07:26;7.30;65.80
78028;DHT22;74605;45.864;11.474;2024-01-15T13:09:52;6.80;66.50
78028;DHT22;74605;45.864;11.474;2024-01-15T13:12:19;6.70;66.70
78028;DHT22;74605;45.864;11.474;2024-01-15T13:14:46;6.40;66.70
78028;DHT22;74605;45.864;11.474;2024-01-15T13:17:13;6.20;67.30
78028;DHT22;74605;45.864;11.474;2024-01-15T13:19:40;6.10;67.50
78028;DHT22;74605;45.864;11.474;2024-01-15T13:22:06;5.70;67.70
78028;DHT22;74605;45.864;11.474;2024-01-15T13:24:33;5.90;67.90
78028;DHT22;74605;45.864;11.474;2024-01-15T13:26:59;5.90;68.00
78028;DHT22;74605;45.864;11.474;2024-01-15T13:29:25;5.80;68.00
78028;DHT22;74605;45.864;11.474;2024-01-15T13:31:51;5.70;68.30
78028;DHT22;74605;45.864;11.474;2024-01-15T13:34:17;5.90;68.30
78028;DHT22;74605;45.864;11.474;2024-01-15T13:36:43;5.80;68.20
78028;DHT22;74605;45.864;11.474;2024-01-15T13:39:09;5.90;68.20
78028;DHT22;74605;45.864;11.474;2024-01-15T13:41:36;5.70;68.30
78028;DHT22;74605;45.864;11.474;2024-01-15T13:44:01;5.50;68.50
78028;DHT22;74605;45.864;11.474;2024-01-15T13:46:28;5.70;68.80
78028;DHT22;74605;45.864;11.474;2024-01-15T13:48:55;5.50;68.80
78028;DHT22;74605;45.864;11.474;2024-01-15T13:51:24;5.50;68.90
78028;DHT22;74605;45.864;11.474;2024-01-15T13:53:50;5.50;68.80
78028;DHT22;74605;45.864;11.474;2024-01-15T13:56:16;5.40;69.10
78028;DHT22;74605;45.864;11.474;2024-01-15T13:58:42;5.40;69.40
78028;DHT22;74605;45.864;11.474;2024-01-15T14:01:09;5.50;69.10
78028;DHT22;74605;45.864;11.474;2024-01-15T14:03:36;5.40;69.00
78028;DHT22;74605;45.864;11.474;2024-01-15T14:06:02;5.10;69.30
78028;DHT22;74605;45.864;11.474;2024-01-15T14:08:29;5.00;69.30
78028;DHT22;74605;45.864;11.474;2024-01-15T14:10:55;5.20;69.60
78028;DHT22;74605;45.864;11.474;2024-01-15T14:13:25;5.30;69.40
78028;DHT22;74605;45.864;11.474;2024-01-15T14:15:51;5.10;69.90
78028;DHT22;74605;45.864;11.474;2024-01-15T14:18:17;5.10;69.90
78028;DHT22;74605;45.864;11.474;2024-01-15T14:20:43;5.20;70.00
78028;DHT22;74605;45.864;11.474;2024-01-15T14:23:09;5.00;70.00
78028;DHT22;74605;45.864;11.474;2024-01-15T14:25:36;5.10;69.90
78028;DHT22;74605;45.864;11.474;2024-01-15T14:28:02;5.30;69.80
78028;DHT22;74605;45.864;11.474;2024-01-15T14:30:28;5.20;69.70
78028;DHT22;74605;45.864;11.474;2024-01-15T14:32:53;4.90;70.30
78028;DHT22;74605;45.864;11.474;2024-01-15T14:35:19;5.20;70.20
78028;DHT22;74605;45.864;11.474;2024-01-15T14:37:45;5.00;70.20
78028;DHT22;74605;45.864;11.474;2024-01-15T14:40:13;5.00;70.30
78028;DHT22;74605;45.864;11.474;2024-01-15T14:42:41;4.80;70.50
78028;DHT22;74605;45.864;11.474;2024-01-15T14:45:08;5.00;70.50
78028;DHT22;74605;45.864;11.474;2024-01-15T14:47:40;4.90;70.50
78028;DHT22;74605;45.864;11.474;2024-01-15T14:50:08;4.90;70.20
78028;DHT22;74605;45.864;11.474;2024-01-15T14:52:36;5.00;70.10
78028;DHT22;74605;45.864;11.474;2024-01-15T14:55:02;5.30;70.00
78028;DHT22;74605;45.864;11.474;2024-01-15T14:57:28;5.20;70.00
78028;DHT22;74605;45.864;11.474;2024-01-15T14:59:54;5.10;70.60
78028;DHT22;74605;45.864;11.474;2024-01-15T15:02:20;5.10;70.20
78028;DHT22;74605;45.864;11.474;2024-01-15T15:04:47;5.20;70.30
78028;DHT22;74605;45.864;11.474;2024-01-15T15:07:12;5.10;69.80
78028;DHT22;74605;45.864;11.474;2024-01-15T15:09:38;5.00;70.40
78028;DHT22;74605;45.864;11.474;2024-01-15T15:12:05;5.20;70.20
78028;DHT22;74605;45.864;11.474;2024-01-15T15:14:32;5.00;70.00
78028;DHT22;74605;45.864;11.474;2024-01-15T15:17:05;4.90;70.10
78028;DHT22;74605;45.864;11.474;2024-01-15T15:19:32;4.80;70.40
78028;DHT22;74605;45.864;11.474;2024-01-15T15:21:59;4.70;70.40
78028;DHT22;74605;45.864;11.474;2024-01-15T15:24:25;4.80;70.40
78028;DHT22;74605;45.864;11.474;2024-01-15T15:26:51;4.60;70.40
78028;DHT22;74605;45.864;11.474;2024-01-15T15:29:17;4.40;70.80
78028;DHT22;74605;45.864;11.474;2024-01-15T15:31:43;4.30;70.90
78028;DHT22;74605;45.864;11.474;2024-01-15T15:34:10;4.50;70.50
78028;DHT22;74605;45.864;11.474;2024-01-15T15:36:36;4.40;70.70
78028;DHT22;74605;45.864;11.474;2024-01-15T15:39:02;4.30;71.10